createdAt,value
2017-10-28T00:00:03.980Z,781.96
2017-10-28T00:00:07.795Z,781.94
2017-10-28T00:00:11.876Z,781.93
2017-10-28T00:00:15.954Z,781.91
2017-10-28T00:00:20.173Z,781.93
2017-10-28T00:00:23.988Z,781.92
2017-10-28T00:00:27.814Z,781.92
2017-10-28T00:00:31.905Z,781.94
2017-10-28T00:00:35.728Z,781.94
2017-10-28T00:00:39.808Z,781.93
2017-10-28T00:00:43.766Z,781.97
2017-10-28T00:00:47.715Z,781.88
2017-10-28T00:00:51.801Z,781.96
2017-10-28T00:00:55.882Z,781.9
2017-10-28T00:00:59.837Z,781.89
2017-10-28T00:01:03.911Z,781.91
2017-10-28T00:01:07.990Z,781.92
2017-10-28T00:01:12.390Z,781.9
2017-10-28T00:01:16.604Z,781.89
2017-10-28T00:01:20.553Z,781.89
2017-10-28T00:01:24.765Z,781.9
2017-10-28T00:01:28.711Z,781.93
2017-10-28T00:01:32.792Z,781.9
2017-10-28T00:01:36.749Z,781.88
2017-10-28T00:01:40.834Z,781.88
2017-10-28T00:01:44.910Z,781.87
2017-10-28T00:01:48.735Z,781.85
2017-10-28T00:01:52.955Z,781.84
2017-10-28T00:01:57.037Z,781.86
2017-10-28T00:02:00.856Z,781.88
2017-10-28T00:02:04.940Z,781.89
2017-10-28T00:02:09.149Z,781.88
2017-10-28T00:02:13.228Z,781.87
2017-10-28T00:02:17.178Z,781.87
2017-10-28T00:02:20.987Z,781.85
2017-10-28T00:02:24.938Z,781.84
2017-10-28T00:02:29.016Z,781.85
2017-10-28T00:02:32.966Z,781.86
2017-10-28T00:02:37.310Z,781.83
2017-10-28T00:02:41.256Z,781.83
2017-10-28T00:02:45.464Z,781.82
2017-10-28T00:02:49.410Z,781.85
2017-10-28T00:02:53.365Z,781.83
2017-10-28T00:02:57.190Z,781.84
2017-10-28T00:03:01.137Z,781.82
2017-10-28T00:03:05.374Z,781.79
2017-10-28T00:03:09.353Z,781.8
2017-10-28T00:03:13.432Z,781.78
2017-10-28T00:03:17.523Z,781.79
2017-10-28T00:03:21.353Z,781.78
2017-10-28T00:03:25.562Z,781.83
2017-10-28T00:03:29.640Z,781.83
2017-10-28T00:03:33.986Z,781.85
2017-10-28T00:03:38.067Z,781.83
2017-10-28T00:03:41.772Z,781.82
2017-10-28T00:03:45.448Z,781.83
2017-10-28T00:03:49.826Z,781.84
2017-10-28T00:03:54.035Z,781.81
2017-10-28T00:03:58.112Z,781.79
2017-10-28T00:04:02.462Z,781.82
2017-10-28T00:04:06.411Z,781.83
2017-10-28T00:04:10.491Z,781.8
2017-10-28T00:04:14.578Z,781.8
2017-10-28T00:04:18.785Z,781.78
2017-10-28T00:04:22.600Z,781.82
2017-10-28T00:04:26.683Z,781.78
2017-10-28T00:04:30.758Z,781.81
2017-10-28T00:04:34.701Z,781.81
2017-10-28T00:04:38.912Z,781.8
2017-10-28T00:04:43.143Z,781.85
2017-10-28T00:04:47.084Z,781.8
2017-10-28T00:04:51.171Z,781.81
2017-10-28T00:04:55.118Z,781.82
2017-10-28T00:04:59.205Z,781.81
2017-10-28T00:05:03.285Z,781.8
2017-10-28T00:05:07.367Z,781.82
2017-10-28T00:05:11.600Z,781.82
2017-10-28T00:05:15.552Z,781.8
2017-10-28T00:05:19.768Z,781.77
2017-10-28T00:05:23.969Z,781.79
2017-10-28T00:05:27.920Z,781.84
2017-10-28T00:05:32.277Z,781.76
2017-10-28T00:05:36.223Z,781.79
2017-10-28T00:05:40.304Z,781.79
2017-10-28T00:05:44.534Z,781.81
2017-10-28T00:05:48.471Z,781.8
2017-10-28T00:05:52.674Z,781.75
2017-10-28T00:05:56.761Z,781.77
2017-10-28T00:06:00.980Z,781.75
2017-10-28T00:06:05.129Z,781.75
2017-10-28T00:06:08.978Z,781.74
2017-10-28T00:06:13.198Z,781.73
2017-10-28T00:06:17.419Z,781.74
2017-10-28T00:06:21.376Z,781.74
2017-10-28T00:06:25.338Z,781.73
2017-10-28T00:06:29.549Z,781.76
2017-10-28T00:06:33.363Z,781.71
2017-10-28T00:06:37.440Z,781.7
2017-10-28T00:06:41.525Z,781.68
2017-10-28T00:06:45.741Z,781.69
2017-10-28T00:06:49.958Z,781.71
2017-10-28T00:06:54.177Z,781.69
2017-10-28T00:06:58.382Z,781.63
2017-10-28T00:07:02.769Z,781.69
2017-10-28T00:07:06.853Z,781.71
2017-10-28T00:07:11.212Z,781.72
2017-10-28T00:07:15.429Z,781.68
2017-10-28T00:07:19.517Z,781.69
2017-10-28T00:07:23.473Z,781.68
2017-10-28T00:07:27.820Z,781.69
2017-10-28T00:07:31.922Z,781.7
2017-10-28T00:07:36.033Z,781.67
2017-10-28T00:07:39.988Z,781.7
2017-10-28T00:07:44.085Z,781.73
2017-10-28T00:07:48.028Z,781.67
2017-10-28T00:07:52.114Z,781.69
2017-10-28T00:07:56.064Z,781.7
2017-10-28T00:08:00.416Z,781.68
2017-10-28T00:08:04.359Z,781.65
2017-10-28T00:08:08.701Z,781.65
2017-10-28T00:08:12.936Z,781.66
2017-10-28T00:08:16.881Z,781.64
2017-10-28T00:08:21.088Z,781.69
2017-10-28T00:08:25.312Z,781.65
2017-10-28T00:08:29.390Z,781.62
2017-10-28T00:08:33.598Z,781.64
2017-10-28T00:08:37.684Z,781.7
2017-10-28T00:08:41.372Z,781.66
2017-10-28T00:08:45.579Z,781.7
2017-10-28T00:08:49.669Z,781.68
2017-10-28T00:08:53.489Z,781.69
2017-10-28T00:08:57.701Z,781.67
2017-10-28T00:09:02.049Z,781.69
2017-10-28T00:09:06.000Z,781.64
2017-10-28T00:09:09.946Z,781.71
2017-10-28T00:09:14.161Z,781.67
2017-10-28T00:09:18.257Z,781.66
2017-10-28T00:09:22.207Z,781.66
2017-10-28T00:09:26.423Z,781.66
2017-10-28T00:09:30.371Z,781.69
2017-10-28T00:09:34.190Z,781.67
2017-10-28T00:09:38.417Z,781.7
2017-10-28T00:09:42.364Z,781.67
2017-10-28T00:09:46.185Z,781.69
2017-10-28T00:09:50.138Z,781.68
2017-10-28T00:09:54.362Z,781.67
2017-10-28T00:09:58.173Z,781.66
2017-10-28T00:10:02.865Z,781.68
2017-10-28T00:10:06.670Z,781.65
2017-10-28T00:10:10.625Z,781.7
2017-10-28T00:10:14.840Z,781.68
2017-10-28T00:10:18.782Z,781.68
2017-10-28T00:10:22.864Z,781.64
2017-10-28T00:10:26.814Z,781.69
2017-10-28T00:10:30.759Z,781.66
2017-10-28T00:10:35.237Z,781.67
2017-10-28T00:10:39.328Z,781.67
2017-10-28T00:10:43.285Z,781.65
2017-10-28T00:10:47.233Z,781.62
2017-10-28T00:10:51.320Z,781.65
2017-10-28T00:10:55.537Z,781.66
2017-10-28T00:10:59.478Z,781.64
2017-10-28T00:11:03.915Z,781.66
2017-10-28T00:11:08.144Z,781.62
2017-10-28T00:11:12.213Z,781.64
2017-10-28T00:11:16.289Z,781.64
2017-10-28T00:11:20.110Z,781.62
2017-10-28T00:11:23.931Z,781.65
2017-10-28T00:11:27.882Z,781.62
2017-10-28T00:11:32.102Z,781.65
2017-10-28T00:11:36.046Z,781.66
2017-10-28T00:11:40.138Z,781.65
2017-10-28T00:11:44.351Z,781.62
2017-10-28T00:11:48.165Z,781.64
2017-10-28T00:11:52.111Z,781.62
2017-10-28T00:11:56.189Z,781.61
2017-10-28T00:11:59.872Z,781.65
2017-10-28T00:12:04.094Z,781.57
2017-10-28T00:12:07.910Z,781.56
2017-10-28T00:12:12.001Z,781.63
2017-10-28T00:12:16.353Z,781.62
2017-10-28T00:12:20.310Z,781.6
2017-10-28T00:12:24.256Z,781.63
2017-10-28T00:12:28.206Z,781.61
2017-10-28T00:12:32.021Z,781.58
2017-10-28T00:12:36.245Z,781.55
2017-10-28T00:12:40.328Z,781.63
2017-10-28T00:12:44.143Z,781.59
2017-10-28T00:12:48.349Z,781.62
2017-10-28T00:12:52.307Z,781.61
2017-10-28T00:12:56.116Z,781.61
2017-10-28T00:12:59.932Z,781.58
2017-10-28T00:13:03.798Z,781.59
2017-10-28T00:13:08.028Z,781.59
2017-10-28T00:13:11.973Z,781.59
2017-10-28T00:13:16.052Z,781.61
2017-10-28T00:13:19.885Z,781.6
2017-10-28T00:13:24.112Z,781.57
2017-10-28T00:13:28.186Z,781.56
2017-10-28T00:13:32.137Z,781.6
2017-10-28T00:13:36.212Z,781.57
2017-10-28T00:13:40.023Z,781.6
2017-10-28T00:13:43.981Z,781.56
2017-10-28T00:13:48.057Z,781.57
2017-10-28T00:13:52.001Z,781.57
2017-10-28T00:13:55.818Z,781.55
2017-10-28T00:13:59.895Z,781.53
2017-10-28T00:14:03.975Z,781.58
2017-10-28T00:14:07.797Z,781.57
2017-10-28T00:14:11.612Z,781.57
2017-10-28T00:14:15.946Z,781.56
2017-10-28T00:14:19.757Z,781.55
2017-10-28T00:14:23.841Z,781.57
2017-10-28T00:14:27.790Z,781.54
2017-10-28T00:14:31.608Z,781.52
2017-10-28T00:14:35.427Z,781.56
2017-10-28T00:14:39.386Z,781.56
2017-10-28T00:14:43.331Z,781.53
2017-10-28T00:14:47.283Z,781.53
2017-10-28T00:14:51.372Z,781.52
2017-10-28T00:14:55.315Z,781.54
2017-10-28T00:14:59.261Z,781.55
2017-10-28T00:15:03.360Z,781.53
2017-10-28T00:15:07.307Z,781.5
2017-10-28T00:15:11.382Z,781.51
2017-10-28T00:15:15.472Z,781.51
2017-10-28T00:15:19.425Z,781.48
2017-10-28T00:15:23.110Z,781.53
2017-10-28T00:15:27.334Z,781.53
2017-10-28T00:15:31.139Z,781.53
2017-10-28T00:15:35.222Z,781.56
2017-10-28T00:15:39.035Z,781.53
2017-10-28T00:15:42.849Z,781.54
2017-10-28T00:15:46.947Z,781.54
2017-10-28T00:15:51.032Z,781.53
2017-10-28T00:15:55.111Z,781.53
2017-10-28T00:15:59.191Z,781.49
2017-10-28T00:16:03.333Z,781.5
2017-10-28T00:16:07.561Z,781.51
2017-10-28T00:16:11.381Z,781.51
2017-10-28T00:16:15.192Z,781.48
2017-10-28T00:16:19.285Z,781.49
2017-10-28T00:16:23.108Z,781.52
2017-10-28T00:16:27.318Z,781.48
2017-10-28T00:16:31.412Z,781.48
2017-10-28T00:16:35.221Z,781.49
2017-10-28T00:16:39.039Z,781.5
2017-10-28T00:16:43.114Z,781.51
2017-10-28T00:16:47.063Z,781.49
2017-10-28T00:16:51.014Z,781.49
2017-10-28T00:16:55.085Z,781.5
2017-10-28T00:16:58.906Z,781.46
2017-10-28T00:17:02.826Z,781.47
2017-10-28T00:17:06.907Z,781.46
2017-10-28T00:17:11.124Z,781.4
2017-10-28T00:17:15.082Z,781.44
2017-10-28T00:17:18.896Z,781.43
2017-10-28T00:17:22.713Z,781.5
2017-10-28T00:17:26.926Z,781.48
2017-10-28T00:17:30.877Z,781.47
2017-10-28T00:17:35.084Z,781.43
2017-10-28T00:17:39.427Z,781.46
2017-10-28T00:17:43.380Z,781.46
2017-10-28T00:17:47.325Z,781.46
2017-10-28T00:17:51.407Z,781.45
2017-10-28T00:17:55.490Z,781.46
2017-10-28T00:17:59.701Z,781.45
2017-10-28T00:18:03.830Z,781.43
2017-10-28T00:18:07.778Z,781.41
2017-10-28T00:18:12.002Z,781.41
2017-10-28T00:18:16.083Z,781.43
2017-10-28T00:18:20.166Z,781.43
2017-10-28T00:18:24.246Z,781.4
2017-10-28T00:18:28.330Z,781.44
2017-10-28T00:18:32.144Z,781.42
2017-10-28T00:18:36.234Z,781.37
2017-10-28T00:18:40.303Z,781.38
2017-10-28T00:18:44.379Z,781.38
2017-10-28T00:18:48.464Z,781.4
2017-10-28T00:18:52.284Z,781.4
2017-10-28T00:18:56.484Z,781.41
2017-10-28T00:19:00.441Z,781.41
2017-10-28T00:19:04.908Z,781.39
2017-10-28T00:19:08.873Z,781.39
2017-10-28T00:19:12.953Z,781.4
2017-10-28T00:19:16.900Z,781.38
2017-10-28T00:19:20.848Z,781.39
2017-10-28T00:19:25.201Z,781.38
2017-10-28T00:19:29.017Z,781.38
2017-10-28T00:19:32.964Z,781.36
2017-10-28T00:19:36.912Z,781.32
2017-10-28T00:19:41.008Z,781.32
2017-10-28T00:19:45.100Z,781.33
2017-10-28T00:19:49.178Z,781.31
2017-10-28T00:19:53.267Z,781.36
2017-10-28T00:19:57.380Z,781.35
2017-10-28T00:20:01.597Z,781.33
2017-10-28T00:20:05.978Z,781.34
2017-10-28T00:20:10.193Z,781.34
2017-10-28T00:20:14.400Z,781.33
2017-10-28T00:20:18.347Z,781.34
2017-10-28T00:20:22.559Z,781.34
2017-10-28T00:20:26.782Z,781.33
2017-10-28T00:20:30.991Z,781.34
2017-10-28T00:20:35.066Z,781.34
2017-10-28T00:20:38.882Z,781.3
2017-10-28T00:20:42.833Z,781.31
2017-10-28T00:20:46.797Z,781.3
2017-10-28T00:20:51.018Z,781.3
2017-10-28T00:20:55.101Z,781.31
2017-10-28T00:20:59.314Z,781.31
2017-10-28T00:21:03.522Z,781.26
2017-10-28T00:21:07.469Z,781.27
2017-10-28T00:21:11.558Z,781.26
2017-10-28T00:21:15.635Z,781.26
2017-10-28T00:21:19.717Z,781.27
2017-10-28T00:21:23.536Z,781.25
2017-10-28T00:21:27.782Z,781.27
2017-10-28T00:21:31.860Z,781.25
2017-10-28T00:21:35.936Z,781.25
2017-10-28T00:21:39.877Z,781.24
2017-10-28T00:21:43.948Z,781.22
2017-10-28T00:21:47.760Z,781.22
2017-10-28T00:21:51.722Z,781.21
2017-10-28T00:21:55.937Z,781.22
2017-10-28T00:21:59.879Z,781.21
2017-10-28T00:22:04.140Z,781.21
2017-10-28T00:22:08.238Z,781.21
2017-10-28T00:22:12.312Z,781.2
2017-10-28T00:22:16.526Z,781.17
2017-10-28T00:22:20.480Z,781.19
2017-10-28T00:22:24.167Z,781.2
2017-10-28T00:22:28.125Z,781.17
2017-10-28T00:22:31.808Z,781.14
2017-10-28T00:22:35.775Z,781.16
2017-10-28T00:22:39.597Z,781.12
2017-10-28T00:22:43.674Z,781.12
2017-10-28T00:22:47.618Z,781.13
2017-10-28T00:22:51.561Z,781.12
2017-10-28T00:22:55.908Z,781.09
2017-10-28T00:22:59.995Z,781.13
2017-10-28T00:23:04.224Z,781.12
2017-10-28T00:23:08.445Z,781.12
2017-10-28T00:23:12.526Z,781.11
2017-10-28T00:23:16.869Z,781.12
2017-10-28T00:23:20.951Z,781.06
2017-10-28T00:23:24.909Z,781.1
2017-10-28T00:23:28.868Z,781.08
2017-10-28T00:23:32.816Z,781.09
2017-10-28T00:23:36.629Z,781.03
2017-10-28T00:23:40.446Z,781.03
2017-10-28T00:23:44.259Z,781.04
2017-10-28T00:23:48.338Z,781
2017-10-28T00:23:52.422Z,781.04
2017-10-28T00:23:56.505Z,780.99
2017-10-28T00:24:00.192Z,781.02
2017-10-28T00:24:04.147Z,780.98
2017-10-28T00:24:07.964Z,780.98
2017-10-28T00:24:12.170Z,780.99
2017-10-28T00:24:16.117Z,780.98
2017-10-28T00:24:20.331Z,780.95
2017-10-28T00:24:24.153Z,780.95
2017-10-28T00:24:28.096Z,780.93
2017-10-28T00:24:32.312Z,780.91
2017-10-28T00:24:36.429Z,780.92
2017-10-28T00:24:40.638Z,780.91
2017-10-28T00:24:44.717Z,780.93
2017-10-28T00:24:48.795Z,780.91
2017-10-28T00:24:53.141Z,780.89
2017-10-28T00:24:56.844Z,780.91
2017-10-28T00:25:00.786Z,780.88
2017-10-28T00:25:05.227Z,780.85
2017-10-28T00:25:09.309Z,780.86
2017-10-28T00:25:13.430Z,780.85
2017-10-28T00:25:17.509Z,780.8
2017-10-28T00:25:21.731Z,780.82
2017-10-28T00:25:25.814Z,780.85
2017-10-28T00:25:30.022Z,780.81
2017-10-28T00:25:33.974Z,780.84
2017-10-28T00:25:37.920Z,780.8
2017-10-28T00:25:41.733Z,780.79
2017-10-28T00:25:45.820Z,780.79
2017-10-28T00:25:49.776Z,780.79
2017-10-28T00:25:53.719Z,780.75
2017-10-28T00:25:57.943Z,780.72
2017-10-28T00:26:02.364Z,780.77
2017-10-28T00:26:06.589Z,780.74
2017-10-28T00:26:10.667Z,780.74
2017-10-28T00:26:14.877Z,780.73
2017-10-28T00:26:18.818Z,780.7
2017-10-28T00:26:22.774Z,780.68
2017-10-28T00:26:26.982Z,780.69
2017-10-28T00:26:31.060Z,780.69
2017-10-28T00:26:35.018Z,780.68
2017-10-28T00:26:38.971Z,780.65
2017-10-28T00:26:42.917Z,780.65
2017-10-28T00:26:47.126Z,780.64
2017-10-28T00:26:51.202Z,780.66
2017-10-28T00:26:55.184Z,780.62
2017-10-28T00:26:59.259Z,780.63
2017-10-28T00:27:03.608Z,780.59
2017-10-28T00:27:07.559Z,780.56
2017-10-28T00:27:11.767Z,780.57
2017-10-28T00:27:15.846Z,780.6
2017-10-28T00:27:20.056Z,780.55
2017-10-28T00:27:23.743Z,780.54
2017-10-28T00:27:28.100Z,780.52
2017-10-28T00:27:32.182Z,780.5
2017-10-28T00:27:36.432Z,780.48
2017-10-28T00:27:40.391Z,780.52
2017-10-28T00:27:44.207Z,780.49
2017-10-28T00:27:48.018Z,780.5
2017-10-28T00:27:51.963Z,780.47
2017-10-28T00:27:55.912Z,780.44
2017-10-28T00:28:00.263Z,780.4
2017-10-28T00:28:04.723Z,780.43
2017-10-28T00:28:08.807Z,780.4
2017-10-28T00:28:12.900Z,780.43
2017-10-28T00:28:16.852Z,780.43
2017-10-28T00:28:20.936Z,780.43
2017-10-28T00:28:24.765Z,780.38
2017-10-28T00:28:28.977Z,780.4
2017-10-28T00:28:32.797Z,780.39
2017-10-28T00:28:36.746Z,780.4
2017-10-28T00:28:40.823Z,780.36
2017-10-28T00:28:44.898Z,780.35
2017-10-28T00:28:48.712Z,780.29
2017-10-28T00:28:52.786Z,780.29
2017-10-28T00:28:56.864Z,780.34
2017-10-28T00:29:00.685Z,780.3
2017-10-28T00:29:05.071Z,780.28
2017-10-28T00:29:09.153Z,780.3
2017-10-28T00:29:13.230Z,780.33
2017-10-28T00:29:17.045Z,780.3
2017-10-28T00:29:21.277Z,780.26
2017-10-28T00:29:25.221Z,780.31
2017-10-28T00:29:29.428Z,780.27
2017-10-28T00:29:33.396Z,780.26
2017-10-28T00:29:37.614Z,780.26
2017-10-28T00:29:41.559Z,780.23
2017-10-28T00:29:45.506Z,780.17
2017-10-28T00:29:49.462Z,780.17
2017-10-28T00:29:53.407Z,780.18
2017-10-28T00:29:57.363Z,780.19
2017-10-28T00:30:01.315Z,780.13
2017-10-28T00:30:05.758Z,780.23
2017-10-28T00:30:09.709Z,780.17
2017-10-28T00:30:14.064Z,780.17
2017-10-28T00:30:18.137Z,780.16
2017-10-28T00:30:22.342Z,780.16
2017-10-28T00:30:26.427Z,780.13
2017-10-28T00:30:30.516Z,780.14
2017-10-28T00:30:34.857Z,780.09
2017-10-28T00:30:38.807Z,780.09
2017-10-28T00:30:43.030Z,780.04
2017-10-28T00:30:46.976Z,780.07
2017-10-28T00:30:51.193Z,780.06
2017-10-28T00:30:55.284Z,780.05
2017-10-28T00:30:59.362Z,780.01
2017-10-28T00:31:03.443Z,780.02
2017-10-28T00:31:07.522Z,780.04
2017-10-28T00:31:11.743Z,779.95
2017-10-28T00:31:15.874Z,779.99
2017-10-28T00:31:19.957Z,779.95
2017-10-28T00:31:24.167Z,779.97
2017-10-28T00:31:28.511Z,779.96
2017-10-28T00:31:32.328Z,779.96
2017-10-28T00:31:36.407Z,779.96
2017-10-28T00:31:40.508Z,779.93
2017-10-28T00:31:44.593Z,779.94
2017-10-28T00:31:48.796Z,779.93
2017-10-28T00:31:52.879Z,779.93
2017-10-28T00:31:56.829Z,779.93
2017-10-28T00:32:00.903Z,779.88
2017-10-28T00:32:05.130Z,779.88
2017-10-28T00:32:09.474Z,779.88
2017-10-28T00:32:13.553Z,779.89
2017-10-28T00:32:17.496Z,779.85
2017-10-28T00:32:21.706Z,779.87
2017-10-28T00:32:25.383Z,779.85
2017-10-28T00:32:29.457Z,779.84
2017-10-28T00:32:33.530Z,779.82
2017-10-28T00:32:37.783Z,779.78
2017-10-28T00:32:41.729Z,779.78
2017-10-28T00:32:45.673Z,779.8
2017-10-28T00:32:49.487Z,779.81
2017-10-28T00:32:53.703Z,779.75
2017-10-28T00:32:57.783Z,779.72
2017-10-28T00:33:02.013Z,779.78
2017-10-28T00:33:06.101Z,779.75
2017-10-28T00:33:10.448Z,779.77
2017-10-28T00:33:14.388Z,779.76
2017-10-28T00:33:18.612Z,779.79
2017-10-28T00:33:22.823Z,779.72
2017-10-28T00:33:26.906Z,779.71
2017-10-28T00:33:31.125Z,779.68
2017-10-28T00:33:35.212Z,779.71
2017-10-28T00:33:39.282Z,779.7
2017-10-28T00:33:43.491Z,779.71
2017-10-28T00:33:47.459Z,779.7
2017-10-28T00:33:51.533Z,779.67
2017-10-28T00:33:55.485Z,779.64
2017-10-28T00:33:59.302Z,779.68
2017-10-28T00:34:03.268Z,779.61
2017-10-28T00:34:07.478Z,779.58
2017-10-28T00:34:11.823Z,779.59
2017-10-28T00:34:15.945Z,779.63
2017-10-28T00:34:20.159Z,779.58
2017-10-28T00:34:24.240Z,779.57
2017-10-28T00:34:28.456Z,779.6
2017-10-28T00:34:32.544Z,779.58
2017-10-28T00:34:36.621Z,779.58
2017-10-28T00:34:40.448Z,779.57
2017-10-28T00:34:44.388Z,779.64
2017-10-28T00:34:48.205Z,779.61
2017-10-28T00:34:52.164Z,779.61
2017-10-28T00:34:55.981Z,779.58
2017-10-28T00:34:59.801Z,779.55
2017-10-28T00:35:04.081Z,779.58
2017-10-28T00:35:08.172Z,779.54
2017-10-28T00:35:12.124Z,779.56
2017-10-28T00:35:15.939Z,779.57
2017-10-28T00:35:20.063Z,779.59
2017-10-28T00:35:24.008Z,779.54
2017-10-28T00:35:27.956Z,779.56
2017-10-28T00:35:32.055Z,779.55
2017-10-28T00:35:36.274Z,779.54
2017-10-28T00:35:40.613Z,779.56
2017-10-28T00:35:44.690Z,779.51
2017-10-28T00:35:48.918Z,779.51
2017-10-28T00:35:52.866Z,779.51
2017-10-28T00:35:56.688Z,779.49
2017-10-28T00:36:00.915Z,779.49
2017-10-28T00:36:05.256Z,779.49
2017-10-28T00:36:09.074Z,779.47
2017-10-28T00:36:13.161Z,779.45
2017-10-28T00:36:17.101Z,779.48
2017-10-28T00:36:21.182Z,779.43
2017-10-28T00:36:25.275Z,779.39
2017-10-28T00:36:29.086Z,779.4
2017-10-28T00:36:33.034Z,779.43
2017-10-28T00:36:37.112Z,779.47
2017-10-28T00:36:41.064Z,779.47
2017-10-28T00:36:45.146Z,779.43
2017-10-28T00:36:49.489Z,779.42
2017-10-28T00:36:53.460Z,779.41
2017-10-28T00:36:57.547Z,779.42
2017-10-28T00:37:01.755Z,779.39
2017-10-28T00:37:06.012Z,779.39
2017-10-28T00:37:10.238Z,779.42
2017-10-28T00:37:14.048Z,779.37
2017-10-28T00:37:18.125Z,779.38
2017-10-28T00:37:22.198Z,779.4
2017-10-28T00:37:26.268Z,779.37
2017-10-28T00:37:30.093Z,779.39
2017-10-28T00:37:34.036Z,779.38
2017-10-28T00:37:38.115Z,779.39
2017-10-28T00:37:42.321Z,779.38
2017-10-28T00:37:46.268Z,779.37
2017-10-28T00:37:50.517Z,779.39
2017-10-28T00:37:54.727Z,779.39
2017-10-28T00:37:58.810Z,779.31
2017-10-28T00:38:03.004Z,779.38
2017-10-28T00:38:07.082Z,779.34
2017-10-28T00:38:11.164Z,779.34
2017-10-28T00:38:15.638Z,779.34
2017-10-28T00:38:19.588Z,779.37
2017-10-28T00:38:23.406Z,779.34
2017-10-28T00:38:27.489Z,779.34
2017-10-28T00:38:31.567Z,779.34
2017-10-28T00:38:35.510Z,779.33
2017-10-28T00:38:39.593Z,779.32
2017-10-28T00:38:43.406Z,779.32
2017-10-28T00:38:47.487Z,779.34
2017-10-28T00:38:51.569Z,779.3
2017-10-28T00:38:55.782Z,779.34
2017-10-28T00:38:59.598Z,779.27
2017-10-28T00:39:03.699Z,779.24
2017-10-28T00:39:08.038Z,779.29
2017-10-28T00:39:12.118Z,779.29
2017-10-28T00:39:16.331Z,779.27
2017-10-28T00:39:20.674Z,779.28
2017-10-28T00:39:24.633Z,779.3
2017-10-28T00:39:28.589Z,779.25
2017-10-28T00:39:32.537Z,779.25
2017-10-28T00:39:36.620Z,779.26
2017-10-28T00:39:40.308Z,779.2
2017-10-28T00:39:44.422Z,779.22
2017-10-28T00:39:48.490Z,779.19
2017-10-28T00:39:52.709Z,779.25
2017-10-28T00:39:56.929Z,779.25
2017-10-28T00:40:01.004Z,779.25
2017-10-28T00:40:05.296Z,779.24
2017-10-28T00:40:09.529Z,779.23
2017-10-28T00:40:13.612Z,779.21
2017-10-28T00:40:17.824Z,779.23
2017-10-28T00:40:22.175Z,779.25
2017-10-28T00:40:26.251Z,779.22
2017-10-28T00:40:30.326Z,779.21
2017-10-28T00:40:34.402Z,779.17
2017-10-28T00:40:38.621Z,779.22
2017-10-28T00:40:42.839Z,779.22
2017-10-28T00:40:46.924Z,779.18
2017-10-28T00:40:50.740Z,779.22
2017-10-28T00:40:54.683Z,779.22
2017-10-28T00:40:59.026Z,779.2
2017-10-28T00:41:02.971Z,779.2
2017-10-28T00:41:06.816Z,779.2
2017-10-28T00:41:10.766Z,779.22
2017-10-28T00:41:14.596Z,779.18
2017-10-28T00:41:18.545Z,779.19
2017-10-28T00:41:22.495Z,779.17
2017-10-28T00:41:26.579Z,779.18
2017-10-28T00:41:30.266Z,779.16
2017-10-28T00:41:34.358Z,779.16
2017-10-28T00:41:38.571Z,779.16
2017-10-28T00:41:42.253Z,779.17
2017-10-28T00:41:46.065Z,779.2
2017-10-28T00:41:50.143Z,779.16
2017-10-28T00:41:54.101Z,779.13
2017-10-28T00:41:58.041Z,779.16
2017-10-28T00:42:01.990Z,779.15
2017-10-28T00:42:05.940Z,779.17
2017-10-28T00:42:10.168Z,779.13
2017-10-28T00:42:14.245Z,779.17
2017-10-28T00:42:18.062Z,779.14
2017-10-28T00:42:22.169Z,779.13
2017-10-28T00:42:26.253Z,779.18
2017-10-28T00:42:30.461Z,779.13
2017-10-28T00:42:34.275Z,779.17
2017-10-28T00:42:38.351Z,779.13
2017-10-28T00:42:42.431Z,779.13
2017-10-28T00:42:46.779Z,779.08
2017-10-28T00:42:50.850Z,779.13
2017-10-28T00:42:54.790Z,779.12
2017-10-28T00:42:59.002Z,779.11
2017-10-28T00:43:03.394Z,779.11
2017-10-28T00:43:07.613Z,779.11
2017-10-28T00:43:11.560Z,779.1
2017-10-28T00:43:15.680Z,779.1
2017-10-28T00:43:19.632Z,779.12
2017-10-28T00:43:23.457Z,779.1
2017-10-28T00:43:27.676Z,779.09
2017-10-28T00:43:31.501Z,779.03
2017-10-28T00:43:35.581Z,779.06
2017-10-28T00:43:39.670Z,779.07
2017-10-28T00:43:43.747Z,779.08
2017-10-28T00:43:47.696Z,779.12
2017-10-28T00:43:51.772Z,779.08
2017-10-28T00:43:55.984Z,779.09
2017-10-28T00:43:59.932Z,779.09
2017-10-28T00:44:04.026Z,779.09
2017-10-28T00:44:08.105Z,779
2017-10-28T00:44:11.920Z,779.05
2017-10-28T00:44:15.864Z,779.03
2017-10-28T00:44:19.951Z,779.07
2017-10-28T00:44:23.764Z,779.08
2017-10-28T00:44:27.984Z,779.06
2017-10-28T00:44:32.064Z,779.04
2017-10-28T00:44:36.273Z,779.04
2017-10-28T00:44:40.224Z,779.04
2017-10-28T00:44:44.333Z,779.08
2017-10-28T00:44:48.150Z,779
2017-10-28T00:44:52.491Z,779.06
2017-10-28T00:44:56.437Z,779.03
2017-10-28T00:45:00.391Z,779.06
2017-10-28T00:45:04.621Z,779.06
2017-10-28T00:45:08.841Z,779
2017-10-28T00:45:12.668Z,778.96
2017-10-28T00:45:16.625Z,778.98
2017-10-28T00:45:20.575Z,779.03
2017-10-28T00:45:24.788Z,779
2017-10-28T00:45:28.866Z,779.03
2017-10-28T00:45:32.690Z,778.99
2017-10-28T00:45:36.644Z,778.93
2017-10-28T00:45:40.327Z,779
2017-10-28T00:45:44.668Z,778.99
2017-10-28T00:45:48.750Z,778.98
2017-10-28T00:45:52.874Z,779
2017-10-28T00:45:56.954Z,778.99
2017-10-28T00:46:00.901Z,778.99
2017-10-28T00:46:04.867Z,778.99
2017-10-28T00:46:08.954Z,778.98
2017-10-28T00:46:12.640Z,778.98
2017-10-28T00:46:16.876Z,778.95
2017-10-28T00:46:20.690Z,778.97
2017-10-28T00:46:24.766Z,778.93
2017-10-28T00:46:28.714Z,778.9
2017-10-28T00:46:32.656Z,778.96
2017-10-28T00:46:36.742Z,778.96
2017-10-28T00:46:40.417Z,778.94
2017-10-28T00:46:44.240Z,778.93
2017-10-28T00:46:48.465Z,778.91
2017-10-28T00:46:52.287Z,778.92
2017-10-28T00:46:56.242Z,778.9
2017-10-28T00:47:00.453Z,778.87
2017-10-28T00:47:04.449Z,778.88
2017-10-28T00:47:08.537Z,778.9
2017-10-28T00:47:12.620Z,778.93
2017-10-28T00:47:16.570Z,778.87
2017-10-28T00:47:20.790Z,778.88
2017-10-28T00:47:24.870Z,778.89
2017-10-28T00:47:28.686Z,778.85
2017-10-28T00:47:32.898Z,778.88
2017-10-28T00:47:37.259Z,778.86
2017-10-28T00:47:41.337Z,778.87
2017-10-28T00:47:45.814Z,778.87
2017-10-28T00:47:50.056Z,778.86
2017-10-28T00:47:54.267Z,778.87
2017-10-28T00:47:58.342Z,778.85
2017-10-28T00:48:02.727Z,778.86
2017-10-28T00:48:06.814Z,778.8
2017-10-28T00:48:10.895Z,778.85
2017-10-28T00:48:15.106Z,778.81
2017-10-28T00:48:19.194Z,778.79
2017-10-28T00:48:23.289Z,778.84
2017-10-28T00:48:27.377Z,778.81
2017-10-28T00:48:31.194Z,778.81
2017-10-28T00:48:35.269Z,778.82
2017-10-28T00:48:39.487Z,778.79
2017-10-28T00:48:43.172Z,778.77
2017-10-28T00:48:47.119Z,778.74
2017-10-28T00:48:51.067Z,778.78
2017-10-28T00:48:54.747Z,778.73
2017-10-28T00:48:58.954Z,778.74
2017-10-28T00:49:03.507Z,778.74
2017-10-28T00:49:07.470Z,778.74
2017-10-28T00:49:11.288Z,778.75
2017-10-28T00:49:15.232Z,778.75
2017-10-28T00:49:19.324Z,778.78
2017-10-28T00:49:23.419Z,778.75
2017-10-28T00:49:27.628Z,778.76
2017-10-28T00:49:31.707Z,778.75
2017-10-28T00:49:35.814Z,778.75
2017-10-28T00:49:40.026Z,778.73
2017-10-28T00:49:43.984Z,778.75
2017-10-28T00:49:48.065Z,778.75
2017-10-28T00:49:52.405Z,778.76
2017-10-28T00:49:56.354Z,778.77
2017-10-28T00:50:00.310Z,778.76
2017-10-28T00:50:04.262Z,778.75
2017-10-28T00:50:08.210Z,778.76
2017-10-28T00:50:12.030Z,778.76
2017-10-28T00:50:16.112Z,778.73
2017-10-28T00:50:20.202Z,778.75
2017-10-28T00:50:24.020Z,778.76
2017-10-28T00:50:27.977Z,778.73
2017-10-28T00:50:32.335Z,778.73
2017-10-28T00:50:36.408Z,778.72
2017-10-28T00:50:40.238Z,778.7
2017-10-28T00:50:44.447Z,778.72
2017-10-28T00:50:48.132Z,778.73